createdAt,value
2023-11-26T00:01:01.451Z,70.86
2023-11-26T00:03:28.122Z,70.89
2023-11-26T00:05:54.873Z,70.75
2023-11-26T00:08:21.584Z,70.58
2023-11-26T00:10:48.400Z,71.02
2023-11-26T00:13:15.227Z,71.05
2023-11-26T00:15:42.019Z,71.28
2023-11-26T00:18:09.036Z,71.15
2023-11-26T00:20:35.801Z,70.96
2023-11-26T00:23:02.621Z,70.76
2023-11-26T00:25:29.495Z,71.00
2023-11-26T00:27:56.225Z,71.14
2023-11-26T00:30:22.982Z,71.10
2023-11-26T00:32:49.772Z,71.05
2023-11-26T00:35:16.957Z,71.30
2023-11-26T00:37:44.115Z,71.29
2023-11-26T00:40:13.410Z,71.28
2023-11-26T00:42:40.502Z,71.07
2023-11-26T00:45:07.509Z,71.27
2023-11-26T00:47:34.271Z,70.95
2023-11-26T00:50:04.615Z,71.05
2023-11-26T00:52:33.520Z,70.96
2023-11-26T00:55:00.778Z,70.64
2023-11-26T00:57:27.548Z,70.66
2023-11-26T00:59:54.260Z,70.91
2023-11-26T01:02:24.383Z,70.73
2023-11-26T01:04:52.205Z,70.78
2023-11-26T01:07:19.355Z,70.70
2023-11-26T01:09:46.030Z,70.56
2023-11-26T01:12:12.780Z,70.27
2023-11-26T01:14:39.683Z,70.38
2023-11-26T01:17:06.687Z,70.25
2023-11-26T01:19:33.765Z,70.66
2023-11-26T01:22:00.657Z,70.69
2023-11-26T01:24:27.574Z,70.59
2023-11-26T01:26:54.716Z,70.70
2023-11-26T01:29:21.446Z,70.46
2023-11-26T01:31:48.155Z,71.27
2023-11-26T01:34:15.005Z,71.11
2023-11-26T01:36:42.351Z,70.84
2023-11-26T01:39:09.329Z,70.93
2023-11-26T01:41:36.079Z,71.16
2023-11-26T01:44:02.805Z,71.36
2023-11-26T01:46:30.729Z,71.13
2023-11-26T01:48:59.977Z,71.28
2023-11-26T01:51:30.367Z,71.20
2023-11-26T01:53:57.804Z,71.30
2023-11-26T01:56:25.119Z,71.57
2023-11-26T01:58:52.470Z,71.62
2023-11-26T02:01:22.676Z,71.93
2023-11-26T02:03:50.914Z,71.99
2023-11-26T02:06:17.747Z,72.08
2023-11-26T02:08:47.043Z,72.12
2023-11-26T02:11:13.971Z,72.22
2023-11-26T02:13:45.578Z,72.20
2023-11-26T02:16:12.341Z,72.37
2023-11-26T02:18:39.273Z,72.57
2023-11-26T02:21:06.091Z,72.73
2023-11-26T02:23:37.448Z,72.63
2023-11-26T02:26:10.720Z,72.43
2023-11-26T02:28:46.712Z,72.43
2023-11-26T02:31:13.472Z,72.45
2023-11-26T02:33:54.252Z,72.62
2023-11-26T02:36:23.294Z,72.70
2023-11-26T02:38:50.254Z,72.61
2023-11-26T02:41:17.097Z,72.77
2023-11-26T02:43:43.793Z,72.65
2023-11-26T02:46:10.518Z,72.99
2023-11-26T02:48:37.990Z,72.88
2023-11-26T02:51:04.658Z,72.62
2023-11-26T02:53:31.406Z,72.76
2023-11-26T02:55:58.109Z,72.77
2023-11-26T02:58:24.845Z,72.88
2023-11-26T03:00:52.741Z,72.75
2023-11-26T03:03:22.508Z,73.07
2023-11-26T03:05:51.680Z,72.76
2023-11-26T03:08:33.636Z,72.64
2023-11-26T03:11:19.072Z,72.27
2023-11-26T03:13:46.058Z,72.44
2023-11-26T03:16:13.589Z,72.56
2023-11-26T03:18:40.333Z,72.40
2023-11-26T03:21:08.368Z,72.20
2023-11-26T03:23:35.074Z,72.29
2023-11-26T03:26:01.828Z,72.32
2023-11-26T03:28:28.720Z,71.99
2023-11-26T03:30:57.964Z,72.10
2023-11-26T03:33:27.593Z,72.22
2023-11-26T03:35:54.556Z,72.34
2023-11-26T03:38:21.359Z,72.36
2023-11-26T03:40:48.558Z,72.23
2023-11-26T03:43:16.161Z,72.18
2023-11-26T03:45:43.235Z,72.08
2023-11-26T03:48:10.269Z,72.14
2023-11-26T03:50:37.205Z,72.04
2023-11-26T03:53:04.022Z,72.14
2023-11-26T03:55:31.709Z,72.29
2023-11-26T03:57:58.525Z,72.19
2023-11-26T04:00:25.774Z,72.33
2023-11-26T04:02:52.551Z,72.31
2023-11-26T04:05:19.525Z,72.51
2023-11-26T04:07:46.450Z,72.42
2023-11-26T04:10:17.542Z,72.34
2023-11-26T04:12:50.041Z,72.65
2023-11-26T04:15:23.570Z,72.35
2023-11-26T04:17:50.594Z,72.68
2023-11-26T04:20:17.296Z,72.50
2023-11-26T04:22:45.837Z,72.37
2023-11-26T04:25:12.974Z,72.24
2023-11-26T04:27:39.708Z,72.35
2023-11-26T04:30:08.361Z,72.16
2023-11-26T04:32:35.141Z,71.96
2023-11-26T04:35:02.062Z,72.15
2023-11-26T04:37:28.733Z,72.27
2023-11-26T04:39:55.416Z,72.17
2023-11-26T04:42:22.513Z,72.06
2023-11-26T04:44:49.090Z,72.12
2023-11-26T04:47:16.109Z,71.89
2023-11-26T04:49:42.973Z,71.58
2023-11-26T04:52:12.640Z,71.60
2023-11-26T04:54:39.563Z,71.61
2023-11-26T04:57:06.241Z,71.55
2023-11-26T04:59:33.380Z,71.40
2023-11-26T05:02:07.351Z,71.63
2023-11-26T05:04:34.546Z,71.77
2023-11-26T05:07:01.290Z,71.56
2023-11-26T05:09:27.913Z,71.46
2023-11-26T05:11:54.662Z,71.36
2023-11-26T05:14:21.379Z,71.22
2023-11-26T05:16:48.935Z,71.51
2023-11-26T05:19:16.728Z,71.46
2023-11-26T05:21:43.564Z,70.97
2023-11-26T05:24:11.734Z,71.29
2023-11-26T05:26:38.524Z,71.13
2023-11-26T05:29:06.740Z,70.96
2023-11-26T05:31:33.549Z,70.97
2023-11-26T05:34:00.220Z,71.04
2023-11-26T05:36:27.641Z,71.26
2023-11-26T05:38:54.585Z,70.99
2023-11-26T05:41:21.340Z,70.81
2023-11-26T05:43:48.084Z,71.01
2023-11-26T05:46:15.501Z,70.92
2023-11-26T05:48:43.033Z,70.87
2023-11-26T05:51:10.759Z,70.80
2023-11-26T05:53:37.740Z,71.14
2023-11-26T05:56:08.453Z,71.00
2023-11-26T05:58:35.220Z,70.88
2023-11-26T06:01:02.066Z,70.76
2023-11-26T06:03:29.092Z,70.91
2023-11-26T06:05:55.849Z,71.20
2023-11-26T06:08:22.592Z,71.18
2023-11-26T06:10:49.270Z,71.41
2023-11-26T06:13:16.313Z,71.60
2023-11-26T06:15:43.508Z,71.27
2023-11-26T06:18:11.012Z,70.82
2023-11-26T06:20:40.681Z,70.84
2023-11-26T06:23:07.334Z,71.13
2023-11-26T06:25:34.124Z,71.06
2023-11-26T06:28:00.783Z,71.27
2023-11-26T06:30:27.733Z,71.24
2023-11-26T06:32:55.940Z,70.94
2023-11-26T06:35:23.072Z,71.30
2023-11-26T06:37:50.040Z,71.16
2023-11-26T06:40:17.145Z,71.32
2023-11-26T06:42:43.917Z,71.18
2023-11-26T06:45:12.145Z,70.71
2023-11-26T06:47:39.881Z,70.93
2023-11-26T06:50:08.296Z,70.90
2023-11-26T06:52:35.454Z,71.26
2023-11-26T06:55:02.825Z,71.07
2023-11-26T06:57:30.389Z,70.21
2023-11-26T06:59:57.422Z,70.74
2023-11-26T07:02:24.306Z,70.66
2023-11-26T07:04:51.536Z,70.92
2023-11-26T07:07:21.992Z,71.00
2023-11-26T07:09:49.273Z,70.75
2023-11-26T07:12:16.404Z,71.02
2023-11-26T07:14:45.715Z,70.93
2023-11-26T07:17:13.697Z,70.86
2023-11-26T07:19:43.998Z,70.89
2023-11-26T07:22:12.476Z,71.04
2023-11-26T07:24:42.807Z,71.08
2023-11-26T07:27:09.841Z,70.98
2023-11-26T07:29:37.976Z,70.93
2023-11-26T07:32:05.042Z,71.15
2023-11-26T07:34:32.249Z,70.75
2023-11-26T07:36:59.486Z,70.72
2023-11-26T07:39:27.714Z,70.73
2023-11-26T07:41:54.740Z,70.88
2023-11-26T07:44:21.743Z,70.84
2023-11-26T07:46:48.485Z,71.05
2023-11-26T07:49:15.821Z,70.70
2023-11-26T07:51:42.622Z,70.69
2023-11-26T07:54:15.794Z,70.70
2023-11-26T07:56:50.805Z,70.62
2023-11-26T07:59:17.826Z,70.99
2023-11-26T08:01:51.005Z,70.62
2023-11-26T08:04:18.838Z,70.69
2023-11-26T08:06:49.793Z,70.90
2023-11-26T08:09:16.998Z,70.46
2023-11-26T08:11:47.880Z,70.75
2023-11-26T08:14:15.766Z,70.51
2023-11-26T08:16:47.927Z,70.75
2023-11-26T08:19:19.520Z,70.97
2023-11-26T08:21:47.014Z,71.13
2023-11-26T08:24:20.179Z,70.75
2023-11-26T08:26:48.758Z,71.05
2023-11-26T08:29:19.792Z,70.91
2023-11-26T08:31:49.727Z,70.75
2023-11-26T08:34:17.551Z,70.91
2023-11-26T08:36:45.357Z,70.98
2023-11-26T08:39:27.920Z,70.86
2023-11-26T08:41:55.445Z,70.62
2023-11-26T08:44:22.159Z,70.68
2023-11-26T08:46:49.199Z,70.62
2023-11-26T08:49:21.982Z,70.59
2023-11-26T08:51:49.296Z,70.23
2023-11-26T08:54:16.480Z,70.82
2023-11-26T08:56:44.247Z,70.80
2023-11-26T08:59:10.943Z,70.48
2023-11-26T09:01:40.985Z,70.69
2023-11-26T09:04:08.445Z,70.52
2023-11-26T09:06:35.382Z,70.43
2023-11-26T09:09:02.107Z,70.58
2023-11-26T09:11:28.808Z,70.74
2023-11-26T09:13:57.880Z,71.16
2023-11-26T09:16:24.673Z,70.78
2023-11-26T09:18:52.444Z,70.67
2023-11-26T09:21:20.361Z,70.77
2023-11-26T09:23:47.166Z,70.79
2023-11-26T09:26:14.703Z,70.42
2023-11-26T09:28:41.490Z,70.64
2023-11-26T09:31:10.177Z,70.53
2023-11-26T09:33:39.327Z,70.31
2023-11-26T09:36:06.694Z,70.58
2023-11-26T09:38:33.585Z,70.51
2023-11-26T09:41:00.422Z,70.40
2023-11-26T09:43:32.042Z,70.11
2023-11-26T09:45:58.914Z,70.33
2023-11-26T09:48:25.977Z,69.94
2023-11-26T09:50:55.359Z,69.86
2023-11-26T09:53:23.342Z,69.78
2023-11-26T09:55:50.998Z,69.85
2023-11-26T09:58:18.474Z,70.08
2023-11-26T10:00:45.413Z,69.80
2023-11-26T10:03:12.309Z,69.56
2023-11-26T10:05:39.908Z,69.54
2023-11-26T10:08:07.229Z,69.45
2023-11-26T10:10:48.523Z,69.30
2023-11-26T10:13:15.289Z,68.98
2023-11-26T10:15:42.690Z,68.99
2023-11-26T10:18:10.832Z,69.12
2023-11-26T10:20:46.644Z,68.65
2023-11-26T10:23:16.726Z,68.94
2023-11-26T10:25:44.859Z,68.85
2023-11-26T10:28:18.368Z,68.56
2023-11-26T10:30:45.625Z,68.71
2023-11-26T10:33:13.929Z,68.83
2023-11-26T10:35:57.452Z,68.70
2023-11-26T10:38:29.528Z,68.44
2023-11-26T10:40:57.680Z,68.37
2023-11-26T10:43:25.111Z,68.66
2023-11-26T10:45:52.733Z,68.47
2023-11-26T10:48:21.964Z,68.03
2023-11-26T10:51:26.417Z,68.40
2023-11-26T10:54:15.275Z,68.28
2023-11-26T10:56:44.775Z,68.14
2023-11-26T10:59:20.738Z,68.58
2023-11-26T11:01:47.881Z,68.36
2023-11-26T11:04:16.330Z,68.19
2023-11-26T11:06:46.976Z,68.26
2023-11-26T11:09:28.721Z,68.35
2023-11-26T11:12:08.499Z,68.06
2023-11-26T11:14:35.642Z,67.85
2023-11-26T11:17:02.387Z,67.94
2023-11-26T11:19:51.539Z,68.08
2023-11-26T11:22:18.649Z,67.87
2023-11-26T11:24:46.287Z,68.31
2023-11-26T11:27:13.050Z,68.13
2023-11-26T11:29:40.399Z,68.96
2023-11-26T11:32:07.324Z,68.73
2023-11-26T11:34:34.867Z,68.25
2023-11-26T11:37:04.164Z,68.22
2023-11-26T11:39:46.436Z,67.11
2023-11-26T11:42:15.120Z,66.76
2023-11-26T11:44:45.951Z,66.63
2023-11-26T11:47:33.390Z,65.91
2023-11-26T11:50:00.369Z,66.14
2023-11-26T11:52:27.383Z,65.19
2023-11-26T11:55:06.328Z,64.63
2023-11-26T11:57:48.374Z,64.69
2023-11-26T12:00:22.401Z,64.86
2023-11-26T12:02:51.008Z,65.46
2023-11-26T12:05:28.544Z,65.43
2023-11-26T12:07:59.365Z,65.21
2023-11-26T12:10:34.041Z,65.62
2023-11-26T12:13:05.789Z,65.66
2023-11-26T12:15:33.289Z,65.58
2023-11-26T12:18:01.887Z,65.56
2023-11-26T12:20:29.569Z,65.81
2023-11-26T12:22:57.184Z,65.93
2023-11-26T12:25:24.062Z,66.07
2023-11-26T12:28:06.506Z,66.00
2023-11-26T12:30:40.045Z,65.63
2023-11-26T12:33:08.983Z,65.89
2023-11-26T12:35:39.270Z,65.71
2023-11-26T12:38:07.987Z,65.52
2023-11-26T12:40:37.316Z,65.48
2023-11-26T12:43:04.541Z,65.14
2023-11-26T12:45:31.472Z,65.50
2023-11-26T12:47:58.619Z,65.32
2023-11-26T12:50:27.488Z,65.52
2023-11-26T12:52:55.095Z,65.06
2023-11-26T12:55:22.342Z,65.00
2023-11-26T12:57:49.426Z,65.10
2023-11-26T13:00:17.299Z,65.26
2023-11-26T13:02:49.864Z,65.22
2023-11-26T13:05:28.693Z,65.56
2023-11-26T13:07:56.884Z,65.85
2023-11-26T13:10:43.633Z,65.94
2023-11-26T13:13:34.464Z,65.96
2023-11-26T13:16:04.546Z,65.97
2023-11-26T13:18:32.038Z,65.81
2023-11-26T13:21:07.241Z,65.51
2023-11-26T13:23:34.536Z,65.47
2023-11-26T13:26:01.923Z,65.45
2023-11-26T13:28:31.154Z,65.61
2023-11-26T13:31:00.744Z,65.83
2023-11-26T13:33:27.972Z,65.96
2023-11-26T13:35:57.237Z,65.69
2023-11-26T13:38:23.928Z,65.74
2023-11-26T13:40:52.453Z,65.62
2023-11-26T13:43:19.901Z,65.08
2023-11-26T13:45:47.070Z,65.33
2023-11-26T13:48:14.910Z,64.76
2023-11-26T13:50:41.789Z,64.35
2023-11-26T13:53:10.819Z,64.56
2023-11-26T13:55:37.896Z,64.93
2023-11-26T13:58:04.918Z,65.06
2023-11-26T14:00:35.445Z,64.89
2023-11-26T14:03:04.009Z,64.97
2023-11-26T14:05:31.055Z,65.16
2023-11-26T14:07:57.792Z,65.34
2023-11-26T14:10:28.520Z,65.22
2023-11-26T14:12:57.622Z,65.30
2023-11-26T14:15:26.143Z,65.37
2023-11-26T14:17:53.392Z,65.67
2023-11-26T14:20:21.153Z,65.21
2023-11-26T14:22:54.253Z,65.39
2023-11-26T14:25:21.245Z,65.36
2023-11-26T14:27:49.690Z,65.15
2023-11-26T14:30:18.606Z,65.38
2023-11-26T14:32:48.636Z,65.35
2023-11-26T14:35:16.401Z,65.17
2023-11-26T14:37:44.228Z,65.18
2023-11-26T14:40:12.475Z,65.33
2023-11-26T14:42:43.574Z,65.03
2023-11-26T14:45:14.404Z,65.61
2023-11-26T14:47:47.983Z,65.22
2023-11-26T14:50:14.989Z,65.12
2023-11-26T14:52:42.094Z,65.06
2023-11-26T14:55:14.616Z,65.39
2023-11-26T14:57:43.081Z,65.08
2023-11-26T15:00:10.979Z,64.99
2023-11-26T15:02:39.145Z,65.27
2023-11-26T15:05:09.447Z,65.06
2023-11-26T15:07:36.311Z,65.34
2023-11-26T15:10:04.207Z,65.54
2023-11-26T15:12:31.338Z,65.44
2023-11-26T15:15:00.490Z,65.44
2023-11-26T15:17:27.433Z,65.78
2023-11-26T15:19:55.477Z,65.50
2023-11-26T15:22:22.243Z,65.72
2023-11-26T15:24:49.698Z,65.59
2023-11-26T15:27:17.210Z,65.44
2023-11-26T15:29:45.456Z,65.53
2023-11-26T15:32:13.084Z,65.63
2023-11-26T15:34:40.743Z,65.64
2023-11-26T15:37:10.626Z,65.92
2023-11-26T15:39:37.601Z,65.78
2023-11-26T15:42:05.205Z,65.62
2023-11-26T15:44:31.984Z,65.44
2023-11-26T15:46:58.841Z,65.95
2023-11-26T15:49:26.818Z,65.66
2023-11-26T15:51:54.230Z,65.64
2023-11-26T15:54:21.103Z,65.82
2023-11-26T15:56:48.259Z,66.18
2023-11-26T15:59:15.117Z,66.14
2023-11-26T16:01:42.311Z,65.98
2023-11-26T16:04:09.387Z,65.85
2023-11-26T16:06:36.264Z,65.87
2023-11-26T16:09:03.096Z,65.70
2023-11-26T16:11:32.081Z,66.02
2023-11-26T16:13:59.855Z,66.03
2023-11-26T16:16:26.674Z,65.87
2023-11-26T16:18:53.825Z,66.01
2023-11-26T16:21:20.766Z,66.09
2023-11-26T16:23:47.540Z,66.35
2023-11-26T16:26:14.619Z,66.14
2023-11-26T16:28:41.497Z,66.18
2023-11-26T16:31:10.266Z,66.18
2023-11-26T16:33:55.790Z,66.07
2023-11-26T16:36:23.735Z,65.80
2023-11-26T16:38:52.663Z,65.94
2023-11-26T16:41:19.621Z,65.96
2023-11-26T16:43:51.017Z,65.97
2023-11-26T16:46:19.265Z,66.18
2023-11-26T16:48:47.075Z,65.86
2023-11-26T16:51:14.287Z,66.03
2023-11-26T16:53:42.460Z,66.03
2023-11-26T16:56:10.770Z,65.96
2023-11-26T16:58:40.087Z,65.93
2023-11-26T17:01:09.046Z,65.79
2023-11-26T17:03:36.409Z,66.11
2023-11-26T17:06:04.781Z,65.92
2023-11-26T17:08:32.604Z,66.22
2023-11-26T17:11:00.084Z,66.03
2023-11-26T17:13:27.682Z,66.31
2023-11-26T17:15:54.927Z,66.34
2023-11-26T17:18:22.273Z,66.01
2023-11-26T17:20:49.299Z,66.09
2023-11-26T17:23:17.551Z,66.01
2023-11-26T17:25:47.782Z,65.85
2023-11-26T17:28:19.357Z,65.87
2023-11-26T17:30:49.936Z,65.84
2023-11-26T17:33:18.654Z,66.07
2023-11-26T17:35:46.144Z,65.83
2023-11-26T17:38:13.198Z,66.04
2023-11-26T17:40:40.496Z,66.03
2023-11-26T17:43:07.460Z,66.00
2023-11-26T17:45:34.911Z,65.70
2023-11-26T17:48:02.227Z,65.84
2023-11-26T17:50:29.905Z,65.47
2023-11-26T17:53:04.043Z,65.65
2023-11-26T17:55:37.285Z,65.58
2023-11-26T17:58:04.450Z,65.76
2023-11-26T18:00:33.004Z,65.75
2023-11-26T18:03:00.047Z,65.69
2023-11-26T18:05:28.040Z,65.91
2023-11-26T18:07:58.457Z,65.81
2023-11-26T18:10:26.008Z,65.82
2023-11-26T18:12:52.851Z,65.61
2023-11-26T18:15:19.919Z,65.65
2023-11-26T18:17:47.015Z,65.78
2023-11-26T18:20:18.318Z,65.54
2023-11-26T18:22:45.327Z,65.63
2023-11-26T18:25:13.305Z,65.55
2023-11-26T18:27:40.357Z,65.18
2023-11-26T18:30:07.485Z,65.43
2023-11-26T18:32:34.293Z,65.54
2023-11-26T18:35:01.361Z,65.63
2023-11-26T18:37:29.533Z,65.40
2023-11-26T18:39:56.814Z,65.31
2023-11-26T18:42:23.664Z,65.45
2023-11-26T18:44:50.553Z,65.55
2023-11-26T18:47:17.566Z,65.04
2023-11-26T18:49:44.411Z,65.61
2023-11-26T18:52:15.657Z,65.84
2023-11-26T18:54:44.979Z,65.63
2023-11-26T18:57:11.972Z,65.77
2023-11-26T18:59:41.732Z,65.67
2023-11-26T19:02:08.673Z,65.71
2023-11-26T19:04:39.297Z,65.96
2023-11-26T19:07:07.215Z,65.72
2023-11-26T19:09:34.483Z,65.66
2023-11-26T19:12:01.395Z,65.60
2023-11-26T19:14:28.640Z,65.61
2023-11-26T19:16:55.364Z,65.96
2023-11-26T19:19:22.287Z,65.89
2023-11-26T19:21:50.621Z,65.67
2023-11-26T19:24:17.509Z,65.61
2023-11-26T19:26:45.608Z,65.42
2023-11-26T19:29:13.075Z,65.24
2023-11-26T19:31:40.395Z,65.24
2023-11-26T19:34:07.527Z,65.55
2023-11-26T19:36:34.449Z,65.50
2023-11-26T19:39:01.365Z,65.81
2023-11-26T19:41:28.199Z,66.02
2023-11-26T19:43:54.897Z,65.86
2023-11-26T19:46:21.636Z,66.23
2023-11-26T19:48:49.152Z,65.85
2023-11-26T19:51:19.530Z,65.84
2023-11-26T19:53:47.164Z,65.82
2023-11-26T19:56:15.925Z,65.85
2023-11-26T19:58:43.264Z,66.06
2023-11-26T20:01:13.424Z,66.06
2023-11-26T20:03:41.875Z,65.80
2023-11-26T20:06:09.241Z,65.82
2023-11-26T20:08:36.170Z,65.79
2023-11-26T20:11:04.740Z,65.86
2023-11-26T20:13:32.969Z,65.58
2023-11-26T20:16:00.052Z,66.03
2023-11-26T20:18:26.845Z,66.04
2023-11-26T20:20:54.486Z,66.09
2023-11-26T20:23:22.676Z,66.23
2023-11-26T20:25:52.070Z,66.32
2023-11-26T20:28:20.204Z,66.21
2023-11-26T20:30:49.514Z,66.16
2023-11-26T20:33:19.168Z,66.06
2023-11-26T20:35:47.013Z,65.87
2023-11-26T20:38:13.901Z,65.61
2023-11-26T20:40:40.745Z,65.99
2023-11-26T20:43:07.577Z,65.81
2023-11-26T20:45:34.545Z,65.99
2023-11-26T20:48:01.593Z,65.36
2023-11-26T20:50:28.532Z,65.26
2023-11-26T20:52:55.431Z,65.40
2023-11-26T20:55:32.160Z,65.27
2023-11-26T20:57:59.265Z,65.64
2023-11-26T21:00:26.297Z,65.31
2023-11-26T21:02:53.460Z,65.54
2023-11-26T21:05:20.380Z,65.36
2023-11-26T21:07:47.057Z,65.43
2023-11-26T21:10:13.905Z,65.10
2023-11-26T21:12:40.807Z,65.13
2023-11-26T21:15:10.490Z,65.25
2023-11-26T21:17:39.553Z,64.95
2023-11-26T21:20:08.726Z,64.90
2023-11-26T21:22:36.492Z,65.02
2023-11-26T21:25:07.384Z,65.00
2023-11-26T21:27:34.222Z,65.36
2023-11-26T21:30:01.758Z,65.32
2023-11-26T21:32:28.577Z,64.98
2023-11-26T21:34:55.412Z,65.35
2023-11-26T21:37:22.562Z,65.08
2023-11-26T21:39:49.194Z,65.47
2023-11-26T21:42:17.262Z,65.28
2023-11-26T21:44:44.058Z,65.61
2023-11-26T21:47:10.823Z,65.62
2023-11-26T21:49:38.127Z,65.42
2023-11-26T21:52:05.123Z,65.61
2023-11-26T21:54:32.007Z,65.39
2023-11-26T21:56:58.749Z,65.40
2023-11-26T21:59:25.495Z,65.41
2023-11-26T22:01:53.035Z,65.18
2023-11-26T22:04:20.262Z,65.32
2023-11-26T22:06:48.286Z,65.16
2023-11-26T22:09:15.845Z,65.40
2023-11-26T22:11:42.848Z,65.04
2023-11-26T22:14:09.669Z,64.88
2023-11-26T22:16:37.826Z,64.84
2023-11-26T22:19:06.651Z,64.80
2023-11-26T22:21:34.013Z,65.04
2023-11-26T22:24:04.133Z,64.88
2023-11-26T22:26:37.417Z,65.05
2023-11-26T22:29:04.185Z,64.96
2023-11-26T22:31:33.604Z,65.09
2023-11-26T22:34:01.973Z,65.11
2023-11-26T22:36:31.448Z,65.30
2023-11-26T22:38:59.129Z,65.24
2023-11-26T22:41:27.294Z,64.91
2023-11-26T22:43:55.632Z,65.07
2023-11-26T22:46:27.655Z,65.55
2023-11-26T22:48:55.981Z,65.51
2023-11-26T22:51:22.887Z,65.55
2023-11-26T22:53:51.021Z,65.37
2023-11-26T22:56:19.202Z,65.27
2023-11-26T22:58:46.354Z,64.84
2023-11-26T23:01:14.019Z,64.81
2023-11-26T23:03:41.754Z,65.11
2023-11-26T23:06:09.553Z,65.12
2023-11-26T23:08:36.257Z,65.43
2023-11-26T23:11:03.066Z,65.59
2023-11-26T23:13:31.714Z,65.37
2023-11-26T23:15:58.868Z,65.04
2023-11-26T23:18:26.775Z,64.88
2023-11-26T23:20:54.630Z,65.17
2023-11-26T23:23:33.770Z,64.99
2023-11-26T23:26:05.362Z,65.04
2023-11-26T23:28:32.014Z,64.89
2023-11-26T23:30:58.832Z,65.12
2023-11-26T23:33:25.895Z,64.92
2023-11-26T23:35:52.592Z,65.05
2023-11-26T23:38:19.202Z,65.14
2023-11-26T23:40:47.623Z,65.19
2023-11-26T23:43:14.920Z,65.27
2023-11-26T23:45:43.041Z,65.25
2023-11-26T23:48:11.133Z,65.35
2023-11-26T23:50:37.839Z,65.50
2023-11-26T23:53:04.477Z,65.42
2023-11-26T23:55:31.179Z,65.46
2023-11-26T23:57:59.475Z,65.47
